Time;durP1;ratioP1;P1;durP2;ratioP2;P2;SDS_P1;SDS_P2;PMS_P1;PMS_P2;Temp;Humidity;BMP_temperature;BMP_pressure;BME280_temperature;BME280_humidity;BME280_pressure;Samples;Min_cycle;Max_cycle;Signal;HPM_P1;HPM_P2
2021/09/20 00:02:21;;;;;;;2.75;0.50;;;;;;;9.04;83.38;98561.05;1696970;84;21027;-68
2021/09/20 00:04:49;;;;;;;1.32;0.50;;;;;;;9.05;83.26;98562.13;1682855;84;21095;-68
2021/09/20 00:07:17;;;;;;;3.55;0.40;;;;;;;9.06;83.21;98564.30;1673714;84;21531;-68
2021/09/20 00:09:44;;;;;;;1.98;0.50;;;;;;;9.05;83.32;98563.48;1680152;84;21039;-68
2021/09/20 00:12:13;;;;;;;1.40;0.50;;;;;;;9.04;83.40;98565.94;1701294;84;21459;-68
2021/09/20 00:14:40;;;;;;;4.25;0.50;;;;;;;8.99;83.56;98558.69;1700845;84;21158;-68
2021/09/20 00:17:07;;;;;;;2.02;0.50;;;;;;;8.97;83.72;98558.14;1698867;84;21050;-69
2021/09/20 00:19:35;;;;;;;1.35;0.53;;;;;;;8.99;83.69;98557.87;1701398;84;21094;-68
2021/09/20 00:22:03;;;;;;;3.05;0.40;;;;;;;9.01;83.61;98561.09;1701211;84;21007;-68
2021/09/20 00:24:31;;;;;;;1.52;0.55;;;;;;;9.03;83.54;98557.55;1682566;84;21091;-68
2021/09/20 00:26:59;;;;;;;1.90;0.50;;;;;;;9.04;83.51;98559.15;1679335;84;21593;-68
2021/09/20 00:29:27;;;;;;;1.40;0.70;;;;;;;8.99;83.66;98559.23;1682774;84;21640;-67
2021/09/20 00:31:54;;;;;;;4.78;0.70;;;;;;;9.05;83.67;98565.39;1701213;84;21019;-67
2021/09/20 00:34:22;;;;;;;1.98;0.80;;;;;;;9.10;83.53;98562.63;1689563;84;21099;-67
2021/09/20 00:36:48;;;;;;;1.25;0.62;;;;;;;9.11;83.49;98556.89;1683478;84;21066;-67
2021/09/20 00:39:16;;;;;;;2.70;0.60;;;;;;;9.09;83.66;98551.50;1694649;84;21561;-67
2021/09/20 00:41:44;;;;;;;0.90;0.50;;;;;;;9.09;83.74;98552.31;1685200;84;21030;-67
2021/09/20 00:44:12;;;;;;;1.55;0.55;;;;;;;9.14;83.50;98554.95;1688842;84;21605;-67
2021/09/20 00:46:39;;;;;;;1.10;0.40;;;;;;;9.13;83.38;98556.61;1683358;84;21051;-67
2021/09/20 00:49:06;;;;;;;2.05;0.60;;;;;;;9.06;83.50;98558.33;1694482;84;21618;-67
2021/09/20 00:51:34;;;;;;;3.92;0.53;;;;;;;9.04;83.59;98560.50;1699340;84;21605;-67
2021/09/20 00:54:00;;;;;;;0.90;0.50;;;;;;;9.09;83.49;98559.09;1677667;84;21601;-68
2021/09/20 00:56:27;;;;;;;3.55;0.60;;;;;;;9.11;83.57;98556.89;1689426;84;21022;-68
2021/09/20 00:58:54;;;;;;;0.98;0.40;;;;;;;9.11;83.57;98556.89;1699565;84;21035;-67
2021/09/20 01:01:20;;;;;;;1.05;0.42;;;;;;;9.09;83.34;98559.64;1659279;84;21114;-67
2021/09/20 01:03:46;;;;;;;1.35;0.60;;;;;;;9.02;83.39;98564.62;1659452;86;21022;-68
2021/09/20 01:06:13;;;;;;;2.33;0.40;;;;;;;8.99;83.46;98568.73;1677288;84;21099;-67
2021/09/20 01:08:39;;;;;;;0.88;0.40;;;;;;;8.99;83.39;98559.23;1675102;84;21038;-68
2021/09/20 01:11:06;;;;;;;1.12;0.60;;;;;;;8.99;83.41;98558.69;1675216;84;21102;-67
2021/09/20 01:13:32;;;;;;;1.05;0.53;;;;;;;9.00;83.42;98556.75;1684066;84;21090;-68
2021/09/20 01:16:00;;;;;;;1.30;0.47;;;;;;;9.00;83.48;98559.47;1682496;84;21118;-67
2021/09/20 01:18:26;;;;;;;1.77;0.60;;;;;;;8.96;83.68;98551.67;1676109;84;21035;-67
2021/09/20 01:20:53;;;;;;;0.90;0.50;;;;;;;8.95;83.78;98545.97;1699968;84;21087;-68
2021/09/20 01:23:20;;;;;;;2.83;0.40;;;;;;;8.98;83.73;98548.10;1692771;84;21015;-68
2021/09/20 01:25:46;;;;;;;1.47;0.53;;;;;;;9.00;83.61;98548.06;1684027;84;21141;-67
2021/09/20 01:28:12;;;;;;;1.37;0.47;;;;;;;9.00;83.56;98548.06;1698031;84;21083;-66
2021/09/20 01:30:39;;;;;;;;;;;;;;;8.95;83.74;98550.05;1701144;84;21098;-68
2021/09/20 01:33:05;;;;;;;0.70;0.40;;;;;;;8.93;83.86;98557.64;1692691;84;20164;-68
2021/09/20 01:35:31;;;;;;;1.57;0.70;;;;;;;8.91;83.84;98546.28;1675183;84;21095;-67
2021/09/20 01:37:58;;;;;;;2.80;0.60;;;;;;;8.92;83.84;98551.98;1696457;84;21066;-67
2021/09/20 01:40:24;;;;;;;1.55;0.50;;;;;;;8.88;83.91;98551.75;1685742;84;21098;-67
2021/09/20 01:42:52;;;;;;;1.87;0.50;;;;;;;8.84;84.08;98550.70;1684258;84;21107;-68
2021/09/20 01:45:19;;;;;;;0.80;0.40;;;;;;;8.88;84.03;98550.94;1697834;84;21087;-68
2021/09/20 01:47:46;;;;;;;1.27;0.60;;;;;;;8.89;84.02;98549.85;1696932;84;21023;-67
2021/09/20 01:50:13;;;;;;;2.20;0.60;;;;;;;8.85;84.15;98547.45;1633206;87;21070;-65
2021/09/20 01:52:41;;;;;;;2.20;0.47;;;;;;;8.83;84.33;98541.48;1626614;87;21047;-67
2021/09/20 01:55:09;;;;;;;0.60;0.30;;;;;;;8.88;84.24;98544.97;1653812;86;21086;-67
2021/09/20 01:57:37;;;;;;;3.08;0.57;;;;;;;8.90;84.18;98544.66;1641430;86;20998;-67
2021/09/20 02:00:05;;;;;;;2.70;0.45;;;;;;;8.92;84.21;98548.72;1635476;86;21051;-67
2021/09/20 02:02:33;;;;;;;3.87;0.50;;;;;;;8.94;84.28;98546.52;1693878;84;21007;-68
2021/09/20 02:04:59;;;;;;;1.55;0.50;;;;;;;8.91;84.42;98544.39;1676187;84;21062;-67
2021/09/20 02:07:25;;;;;;;0.98;0.45;;;;;;;8.89;84.53;98542.49;1688818;84;21039;-67
2021/09/20 02:09:52;;;;;;;1.75;0.50;;;;;;;8.92;84.45;98546.02;1696356;84;21047;-67
2021/09/20 02:12:19;;;;;;;2.12;0.50;;;;;;;8.93;84.45;98545.44;1692193;84;20975;-67
2021/09/20 02:14:46;;;;;;;1.35;0.50;;;;;;;8.93;84.45;98542.72;1689570;84;21087;-65
2021/09/20 02:17:12;;;;;;;0.95;0.40;;;;;;;8.93;84.48;98541.36;1679462;84;21460;-67
2021/09/20 02:19:39;;;;;;;0.98;0.50;;;;;;;8.92;84.48;98541.94;1676373;84;21118;-67
2021/09/20 02:22:07;;;;;;;1.80;0.60;;;;;;;8.91;84.52;98543.03;1701366;84;21046;-67
2021/09/20 02:24:35;;;;;;;0.90;0.50;;;;;;;8.84;84.70;98541.75;1694532;84;21573;-67
2021/09/20 02:27:03;;;;;;;1.70;0.50;;;;;;;8.81;84.78;98537.72;1695213;84;21034;-67
2021/09/20 02:29:29;;;;;;;1.00;0.40;;;;;;;8.85;84.73;98537.95;1680101;84;21055;-67
2021/09/20 02:31:56;;;;;;;3.95;0.50;;;;;;;8.86;84.63;98534.94;1680375;84;21549;-67
2021/09/20 02:34:23;;;;;;;1.17;0.47;;;;;;;8.85;84.69;98540.67;1681797;84;21749;-67
2021/09/20 02:36:49;;;;;;;1.30;0.60;;;;;;;8.77;84.90;98546.17;1628491;87;20998;-68
2021/09/20 02:39:15;;;;;;;1.10;0.60;;;;;;;8.78;84.99;98541.56;1637845;87;21098;-66
2021/09/20 02:41:42;;;;;;;2.35;0.60;;;;;;;8.82;84.93;98546.67;1639885;86;21047;-66
2021/09/20 02:44:09;;;;;;;;;;;;;;;8.82;84.95;98546.67;1661865;86;21023;-66
2021/09/20 02:46:35;;;;;;;1.50;0.57;;;;;;;8.77;85.16;98549.44;1683030;84;20194;-66
2021/09/20 02:49:03;;;;;;;1.98;0.75;;;;;;;8.77;85.23;98538.58;1679446;84;21082;-66
2021/09/20 02:51:30;;;;;;;1.22;0.50;;;;;;;8.79;85.17;98549.94;1697538;84;21078;-66
2021/09/20 02:53:56;;;;;;;1.37;0.60;;;;;;;8.78;85.13;98544.28;1696775;84;21063;-67
2021/09/20 02:56:24;;;;;;;2.15;0.53;;;;;;;8.72;85.35;98539.98;1694837;84;21091;-66
2021/09/20 02:58:51;;;;;;;2.62;0.68;;;;;;;8.71;85.45;98545.98;1717366;82;20996;-66
2021/09/20 03:01:17;;;;;;;2.25;0.70;;;;;;;8.75;85.36;98542.92;1734026;82;21437;-66
2021/09/20 03:03:44;;;;;;;2.95;0.70;;;;;;;8.80;85.35;98539.36;1703624;82;21004;-67
2021/09/20 03:06:11;;;;;;;1.30;0.50;;;;;;;8.81;85.32;98544.51;1727549;82;21533;-67
2021/09/20 03:08:39;;;;;;;1.02;0.50;;;;;;;8.77;85.52;98548.08;1725816;82;20980;-68
2021/09/20 03:11:05;;;;;;;2.15;0.70;;;;;;;8.78;85.57;98539.66;1718391;82;21527;-68
2021/09/20 03:13:31;;;;;;;1.40;0.70;;;;;;;8.84;85.38;98541.21;1728397;82;21554;-68
2021/09/20 03:15:58;;;;;;;2.17;0.65;;;;;;;8.82;85.33;98538.53;1727861;82;21530;-67
2021/09/20 03:18:25;;;;;;;0.80;0.55;;;;;;;8.81;85.38;98552.65;1712167;82;21019;-67
2021/09/20 03:20:53;;;;;;;1.40;0.60;;;;;;;8.85;85.26;98548.27;1711482;82;20992;-67
2021/09/20 03:23:19;;;;;;;2.75;0.78;;;;;;;8.84;85.24;98548.00;1733753;82;20992;-67
2021/09/20 03:25:46;;;;;;;1.70;0.65;;;;;;;8.81;85.40;98550.48;1724329;82;21036;-67
2021/09/20 03:28:12;;;;;;;1.25;0.57;;;;;;;8.78;85.47;98542.38;1723926;82;21047;-68
2021/09/20 03:30:38;;;;;;;1.15;0.60;;;;;;;8.84;85.38;98548.00;1739271;82;21040;-68
2021/09/20 03:33:04;;;;;;;;;;;;;;;8.82;85.33;98554.24;1723297;82;21040;-67
2021/09/20 03:35:31;;;;;;;2.02;0.70;;;;;;;8.81;85.41;98551.84;1713472;82;20136;-67
2021/09/20 03:37:57;;;;;;;1.72;0.60;;;;;;;8.80;85.44;98545.59;1714733;82;21062;-67
2021/09/20 03:40:24;;;;;;;2.05;0.90;;;;;;;8.88;85.38;98557.18;1730765;82;21051;-67
2021/09/20 03:42:50;;;;;;;1.65;1.07;;;;;;;8.88;85.41;98551.75;1736681;82;21004;-68
2021/09/20 03:45:16;;;;;;;1.87;0.85;;;;;;;8.83;85.56;98561.84;1711977;82;21075;-68
2021/09/20 03:47:43;;;;;;;4.10;1.00;;;;;;;8.83;85.54;98571.34;1716948;82;21077;-67
2021/09/20 03:50:10;;;;;;;1.80;0.82;;;;;;;8.88;85.37;98559.89;1749305;81;21062;-68
2021/09/20 03:52:39;;;;;;;3.02;0.90;;;;;;;8.84;85.42;98571.61;1730867;83;21553;-68
2021/09/20 03:55:08;;;;;;;2.52;1.10;;;;;;;8.82;85.55;98567.03;1731924;81;21145;-67
2021/09/20 03:57:34;;;;;;;2.87;1.40;;;;;;;8.86;85.46;98568.05;1760804;81;20968;-68
2021/09/20 04:00:01;;;;;;;1.67;1.12;;;;;;;8.85;85.49;98573.23;1760579;81;21507;-68
2021/09/20 04:02:28;;;;;;;1.77;1.20;;;;;;;8.83;85.56;98576.22;1760784;81;21042;-68
2021/09/20 04:04:54;;;;;;;3.17;1.67;;;;;;;8.88;85.47;98579.44;1760328;81;21080;-67
2021/09/20 04:07:22;;;;;;;5.75;1.57;;;;;;;8.83;85.55;98583.00;1759000;81;21022;-68
2021/09/20 04:09:49;;;;;;;2.10;1.50;;;;;;;8.82;85.69;98580.59;1760619;81;21070;-68
2021/09/20 04:12:15;;;;;;;;;;;;;;;8.87;85.57;98584.59;1763094;81;21428;-68
2021/09/20 04:14:43;;;;;;;4.33;1.80;;;;;;;8.91;85.46;98593.23;1760772;81;20421;-68
2021/09/20 04:17:10;;;;;;;2.67;1.35;;;;;;;8.81;85.66;98596.61;1741797;81;21010;-68
2021/09/20 04:19:36;;;;;;;2.17;1.02;;;;;;;8.77;85.89;98599.09;1730759;83;21090;-68
2021/09/20 04:22:04;;;;;;;4.30;0.85;;;;;;;8.84;85.76;98598.75;1730729;83;20958;-66
2021/09/20 04:24:32;;;;;;;1.50;1.00;;;;;;;8.86;85.69;98601.42;1732822;81;21034;-68
2021/09/20 04:27:00;;;;;;;2.42;0.98;;;;;;;8.85;85.76;98607.16;1758729;81;21107;-68
2021/09/20 04:29:28;;;;;;;2.67;1.10;;;;;;;8.87;85.82;98604.95;1760842;81;21467;-68
2021/09/20 04:31:55;;;;;;;3.62;1.62;;;;;;;8.93;85.67;98606.50;1736140;81;21453;-67
2021/09/20 04:34:23;;;;;;;2.52;1.57;;;;;;;8.90;85.67;98612.52;1751318;81;21078;-67
2021/09/20 04:36:49;;;;;;;3.55;1.27;;;;;;;8.92;85.75;98615.77;1760753;81;21429;-68
2021/09/20 04:39:16;;;;;;;;;;;;;;;8.95;85.57;98613.83;1749534;81;21107;-68
2021/09/20 04:41:43;;;;;;;2.47;1.40;;;;;;;8.98;85.50;98624.92;1738158;81;20098;-68
2021/09/20 04:44:09;;;;;;;4.72;1.32;;;;;;;8.85;85.80;98607.97;1747625;81;21394;-68
2021/09/20 04:46:36;;;;;;;1.92;1.10;;;;;;;8.85;85.95;98613.94;1760597;81;21855;-68
2021/09/20 04:49:03;;;;;;;3.70;1.52;;;;;;;8.91;85.85;98622.28;1753161;81;21542;-68
2021/09/20 04:51:30;;;;;;;1.62;1.40;;;;;;;8.96;85.73;98626.31;1747296;82;21059;-68
2021/09/20 04:53:56;;;;;;;1.80;1.32;;;;;;;8.93;85.76;98625.50;1753329;82;21079;-68
2021/09/20 04:56:23;;;;;;;2.00;1.00;;;;;;;8.94;85.91;98624.41;1752876;82;21158;-68
2021/09/20 04:58:49;;;;;;;2.52;1.35;;;;;;;8.98;85.77;98629.53;1751003;82;21023;-68
2021/09/20 05:01:16;;;;;;;;;;;;;;;9.02;85.68;98625.15;1738542;82;21027;-68
2021/09/20 05:03:42;;;;;;;2.05;1.42;;;;;;;9.03;85.62;98624.06;1738628;82;20456;-68
2021/09/20 05:06:09;;;;;;;;;;;;;;;8.92;85.99;98626.62;1755909;82;21082;-68
2021/09/20 05:08:36;;;;;;;;;;;;;;;8.97;86.02;98636.05;1749676;81;20117;-68
2021/09/20 05:11:03;;;;;;;3.80;1.22;;;;;;;8.98;85.90;98629.53;1735478;82;20393;-68
2021/09/20 05:13:29;;;;;;;4.37;1.05;;;;;;;8.92;86.09;98630.69;1748745;82;21516;-68
2021/09/20 05:15:55;;;;;;;2.20;1.05;;;;;;;8.92;86.13;98635.58;1741826;82;21554;-68
2021/09/20 05:18:23;;;;;;;2.12;1.10;;;;;;;8.99;85.94;98640.66;1750121;82;21545;-68
2021/09/20 05:20:49;;;;;;;;;;;;;;;8.98;85.79;98642.56;1755586;82;21395;-68
2021/09/20 05:23:16;;;;;;;3.03;1.10;;;;;;;8.97;85.98;98641.48;1753162;82;20118;-68
2021/09/20 05:25:43;;;;;;;;;;;;;;;9.03;86.02;98643.06;1755558;82;21043;-68
2021/09/20 05:28:09;;;;;;;2.58;1.22;;;;;;;9.06;85.93;98645.74;1752898;82;20138;-69
2021/09/20 05:30:36;;;;;;;4.08;1.10;;;;;;;8.98;86.27;98639.03;1753106;82;21128;-69
2021/09/20 05:33:02;;;;;;;2.22;1.27;;;;;;;9.05;86.20;98649.00;1753539;82;21054;-68
2021/09/20 05:35:28;;;;;;;3.95;1.20;;;;;;;9.11;86.11;98648.38;1753133;82;21557;-69
2021/09/20 05:37:55;;;;;;;2.42;1.00;;;;;;;9.17;86.13;98652.14;1752871;82;21070;-68
2021/09/20 05:40:22;;;;;;;;;;;;;;;9.21;86.09;98642.29;1755554;82;21086;-69
2021/09/20 05:42:49;;;;;;;3.05;1.02;;;;;;;9.22;86.16;98649.34;1753258;82;20126;-68
2021/09/20 05:45:15;;;;;;;2.15;1.20;;;;;;;9.25;86.00;98662.89;1752920;82;21138;-68
2021/09/20 05:47:42;;;;;;;1.62;1.00;;;;;;;9.23;85.96;98668.63;1753052;82;21058;-69
2021/09/20 05:50:10;;;;;;;3.95;1.35;;;;;;;9.22;86.01;98666.19;1752945;81;21069;-68
2021/09/20 05:52:36;;;;;;;2.67;1.35;;;;;;;9.27;85.88;98664.78;1753340;82;21054;-68
2021/09/20 05:55:03;;;;;;;2.45;1.10;;;;;;;9.26;85.96;98668.59;1745417;82;21043;-69
2021/09/20 05:57:30;;;;;;;1.90;0.82;;;;;;;9.31;86.11;98678.05;1735552;82;21066;-68
2021/09/20 05:59:56;;;;;;;1.77;1.02;;;;;;;9.39;86.01;98678.75;1748646;82;21047;-69
2021/09/20 06:02:23;;;;;;;;;;;;;;;9.47;85.96;98680.30;1755580;82;21152;-71
2021/09/20 06:04:49;;;;;;;1.77;1.00;;;;;;;9.49;86.00;98676.72;1744835;82;20421;-69
2021/09/20 06:07:17;;;;;;;2.22;1.10;;;;;;;9.43;86.40;98684.68;1729257;82;21082;-69
2021/09/20 06:09:45;;;;;;;1.87;0.93;;;;;;;9.50;86.41;98688.40;1745477;82;21435;-68
2021/09/20 06:12:13;;;;;;;2.50;0.90;;;;;;;9.60;86.10;98686.13;1723062;83;21080;-69
2021/09/20 06:14:40;;;;;;;3.20;0.90;;;;;;;9.66;85.93;98694.47;1733534;82;21078;-69
2021/09/20 06:17:08;;;;;;;4.00;1.00;;;;;;;9.66;85.72;98694.47;1752117;82;21495;-69
2021/09/20 06:19:34;;;;;;;2.85;1.10;;;;;;;9.61;85.86;98696.69;1753439;82;21604;-69
2021/09/20 06:22:00;;;;;;;1.80;1.07;;;;;;;9.63;85.72;98701.85;1753695;82;21517;-69
2021/09/20 06:24:26;;;;;;;2.70;1.20;;;;;;;9.66;85.49;98709.42;1753265;82;21621;-69
2021/09/20 06:26:54;;;;;;;2.45;0.98;;;;;;;9.67;85.43;98711.83;1741726;82;21062;-69
2021/09/20 06:29:21;;;;;;;1.72;0.88;;;;;;;9.64;85.55;98706.98;1723097;83;21078;-70
2021/09/20 06:31:47;;;;;;;3.37;1.00;;;;;;;9.67;85.65;98715.13;1747428;80;21539;-68
2021/09/20 06:34:13;;;;;;;;;;;;;;;9.69;85.50;98717.80;1721505;82;21053;-69
2021/09/20 06:36:41;;;;;;;;;;;;;;;9.75;85.39;98723.42;1754104;82;20130;-70
2021/09/20 06:39:08;;;;;;;3.70;1.07;;;;;;;9.70;85.50;98717.25;1752897;82;20153;-69
2021/09/20 06:41:35;;;;;;;2.55;0.88;;;;;;;9.59;85.84;98722.00;1750780;82;21007;-70
2021/09/20 06:44:03;;;;;;;;;;;;;;;9.61;85.90;98727.13;1738808;82;21014;-70
2021/09/20 06:46:31;;;;;;;1.98;0.85;;;;;;;9.67;85.62;98728.70;1750428;82;20440;-69
2021/09/20 06:48:58;;;;;;;1.57;1.07;;;;;;;9.69;85.68;98727.31;1746352;82;21018;-70
2021/09/20 06:51:25;;;;;;;2.55;1.07;;;;;;;9.72;85.61;98729.98;1723899;82;21648;-68
2021/09/20 06:53:51;;;;;;;;;;;;;;;9.72;85.68;98738.14;1748502;82;21438;-69
2021/09/20 06:56:18;;;;;;;3.70;1.00;;;;;;;9.76;85.51;98740.00;1746768;82;20143;-69
2021/09/20 06:58:44;;;;;;;3.25;1.25;;;;;;;9.75;85.42;98740.27;1730547;82;20993;-69
2021/09/20 07:01:10;;;;;;;;;;;;;;;9.76;85.30;98742.72;1744475;82;21078;-70
2021/09/20 07:03:36;;;;;;;2.62;1.25;;;;;;;9.71;85.32;98737.33;1723118;83;20136;-69
2021/09/20 07:06:06;;;;;;;3.02;1.87;;;;;;;9.67;85.48;98741.72;1725837;82;21103;-69
2021/09/20 07:08:32;;;;;;;2.90;1.20;;;;;;;9.73;85.44;98746.02;1734720;82;21043;-70
2021/09/20 07:10:59;;;;;;;;;;;;;;;9.78;85.34;98754.09;1741794;82;21030;-70
2021/09/20 07:13:25;;;;;;;3.58;1.37;;;;;;;9.76;85.42;98748.70;1723596;82;20140;-69
2021/09/20 07:15:53;;;;;;;3.27;1.45;;;;;;;9.77;85.47;98753.86;1690473;84;21081;-69
2021/09/20 07:18:21;;;;;;;2.90;1.45;;;;;;;9.83;85.34;98754.05;1731110;82;21480;-70
2021/09/20 07:20:49;;;;;;;3.50;1.32;;;;;;;9.83;85.31;98753.23;1746697;82;21091;-70
2021/09/20 07:23:17;;;;;;;2.10;1.27;;;;;;;9.89;85.35;98760.22;1729158;82;20987;-70
2021/09/20 07:25:45;;;;;;;2.85;1.35;;;;;;;9.98;85.19;98758.48;1742082;82;21573;-70
2021/09/20 07:28:11;;;;;;;3.27;1.70;;;;;;;10.06;85.09;98764.62;1742524;82;20968;-69
2021/09/20 07:30:39;;;;;;;3.27;1.70;;;;;;;10.05;85.17;98760.30;1729629;82;21073;-69
2021/09/20 07:33:05;;;;;;;2.22;1.40;;;;;;;10.08;85.32;98765.70;1725906;82;20995;-70
2021/09/20 07:35:31;;;;;;;3.25;1.42;;;;;;;10.16;85.07;98766.45;1723412;83;21138;-70
2021/09/20 07:37:58;;;;;;;2.27;1.20;;;;;;;10.19;84.81;98780.27;1748914;82;20995;-69
2021/09/20 07:40:26;;;;;;;1.70;1.27;;;;;;;10.19;85.03;98769.94;1750982;82;21050;-70
2021/09/20 07:42:54;;;;;;;1.65;1.20;;;;;;;10.26;85.11;98779.36;1751879;82;20976;-70
2021/09/20 07:45:20;;;;;;;2.77;1.60;;;;;;;10.41;84.84;98775.08;1739795;82;21453;-70
2021/09/20 07:47:46;;;;;;;;;;;;;;;10.45;84.65;98773.94;1732955;82;20986;-70
2021/09/20 07:50:14;;;;;;;3.25;1.30;;;;;;;10.48;84.69;98772.80;1733136;82;20489;-69
2021/09/20 07:52:42;;;;;;;2.42;0.90;;;;;;;10.59;84.80;98780.81;1727574;82;20992;-70
2021/09/20 07:55:09;;;;;;;2.95;1.00;;;;;;;10.71;84.73;98775.16;1715804;82;21547;-69
2021/09/20 07:57:37;;;;;;;4.10;1.10;;;;;;;10.88;84.61;98778.70;1724094;82;21502;-70
2021/09/20 08:00:06;;;;;;;2.37;1.02;;;;;;;10.97;84.37;98779.11;1734899;82;21142;-70
2021/09/20 08:02:32;;;;;;;1.50;0.80;;;;;;;11.05;84.36;98777.62;1725889;82;20980;-70
2021/09/20 08:04:58;;;;;;;2.02;1.20;;;;;;;11.22;84.02;98777.06;1714925;82;21075;-70
2021/09/20 08:07:25;;;;;;;2.95;1.20;;;;;;;11.28;83.59;98782.67;1729908;82;21008;-70
2021/09/20 08:09:51;;;;;;;3.40;1.15;;;;;;;11.29;83.22;98772.84;1710481;82;21556;-70
2021/09/20 08:12:19;;;;;;;1.65;0.88;;;;;;;11.36;82.94;98781.44;1727484;82;21038;-70
2021/09/20 08:14:45;;;;;;;4.12;1.00;;;;;;;11.43;82.63;98781.86;1715349;82;20996;-70
2021/09/20 08:17:12;;;;;;;;;;;;;;;11.55;82.49;98788.75;1742003;82;21035;-70
2021/09/20 08:19:38;;;;;;;1.65;0.90;;;;;;;11.59;82.47;98785.09;1738646;82;20380;-70
2021/09/20 08:22:05;;;;;;;1.90;1.10;;;;;;;11.59;82.49;98789.73;1732556;82;21554;-70
2021/09/20 08:24:31;;;;;;;1.10;0.70;;;;;;;11.68;82.17;98797.48;1718863;82;21019;-70
2021/09/20 08:26:58;;;;;;;2.87;0.78;;;;;;;11.80;82.02;98797.27;1720818;82;21019;-70
2021/09/20 08:29:27;;;;;;;2.22;0.90;;;;;;;11.85;81.67;98801.81;1739159;82;21028;-70
2021/09/20 08:31:53;;;;;;;1.75;0.90;;;;;;;11.84;81.36;98803.73;1729618;82;20988;-71
2021/09/20 08:34:19;;;;;;;3.60;0.90;;;;;;;11.87;81.05;98805.04;1728770;82;21118;-69
2021/09/20 08:36:46;;;;;;;1.10;0.72;;;;;;;11.87;80.54;98802.31;1735585;82;21074;-70
2021/09/20 08:39:12;;;;;;;3.50;0.70;;;;;;;11.84;80.20;98814.64;1709958;84;21023;-70
2021/09/20 08:41:41;;;;;;;1.50;0.80;;;;;;;11.68;80.09;98804.30;1710101;83;21090;-69
2021/09/20 08:44:09;;;;;;;1.50;0.80;;;;;;;11.66;80.29;98807.87;1709585;84;21015;-70
2021/09/20 08:46:39;;;;;;;1.72;0.70;;;;;;;11.69;79.99;98815.47;1709580;84;21083;-70
2021/09/20 08:49:05;;;;;;;1.17;0.80;;;;;;;11.71;80.00;98810.54;1709951;82;21004;-70
2021/09/20 08:51:32;;;;;;;1.72;0.90;;;;;;;11.71;80.27;98809.99;1727007;81;21050;-69
2021/09/20 08:53:58;;;;;;;;;;;;;;;11.78;80.24;98819.13;1738460;82;20960;-70
2021/09/20 08:56:26;;;;;;;1.35;0.90;;;;;;;11.87;80.03;98816.76;1731330;82;20405;-70
2021/09/20 08:58:52;;;;;;;1.65;0.65;;;;;;;11.90;80.06;98811.28;1739742;82;21035;-70
2021/09/20 09:01:18;;;;;;;1.35;0.70;;;;;;;11.96;79.93;98811.42;1727462;82;21119;-70
2021/09/20 09:04:52;;;;;;;1.57;0.93;;;;;;;12.16;78.83;98812.37;1792966;79;23460;-71
2021/09/20 09:07:19;;;;;;;;;;;;;;;12.02;78.62;98817.57;1726846;83;21043;-70
2021/09/20 09:09:49;;;;;;;1.17;0.72;;;;;;;12.00;78.64;98821.17;1722706;83;20135;-70
2021/09/20 09:12:28;;;;;;;2.08;0.90;;;;;;;11.98;78.38;98830.45;1723284;83;21106;-70
2021/09/20 09:14:59;;;;;;;2.12;0.98;;;;;;;11.93;78.66;98824.30;1723266;83;21076;-70
2021/09/20 09:17:37;;;;;;;3.08;1.25;;;;;;;11.96;78.70;98831.88;1723297;83;21050;-70
2021/09/20 09:20:12;;;;;;;2.83;1.32;;;;;;;11.99;78.60;98831.27;1723414;83;21003;-70
2021/09/20 09:23:01;;;;;;;3.52;1.30;;;;;;;12.00;78.79;98842.44;1723149;83;21082;-71
2021/09/20 09:25:40;;;;;;;2.70;1.30;;;;;;;11.95;79.18;98845.25;1723533;83;21546;-71
2021/09/20 09:28:21;;;;;;;3.70;1.27;;;;;;;12.00;79.31;98844.35;1723256;83;21073;-70
2021/09/20 09:30:51;;;;;;;4.60;1.30;;;;;;;12.02;79.28;98843.48;1721711;83;21081;-71
2021/09/20 09:33:25;;;;;;;2.22;1.00;;;;;;;12.00;79.68;98845.17;1723480;83;21094;-69
2021/09/20 09:35:54;;;;;;;3.85;1.40;;;;;;;12.15;79.80;98843.48;1720772;83;21090;-71
2021/09/20 09:38:21;;;;;;;4.62;1.20;;;;;;;12.28;79.56;98850.06;1723177;83;21093;-71
2021/09/20 09:41:00;;;;;;;2.42;1.22;;;;;;;12.32;79.59;98853.25;1723366;83;21066;-70
2021/09/20 09:43:37;;;;;;;1.92;0.70;;;;;;;12.30;79.07;98854.09;1723335;83;21054;-70
2021/09/20 09:46:23;;;;;;;0.90;0.53;;;;;;;12.28;78.95;98853.61;1723398;83;21565;-72
2021/09/20 09:48:53;;;;;;;1.20;0.60;;;;;;;12.30;78.89;98863.65;1723243;83;21530;-70
2021/09/20 09:51:21;;;;;;;2.00;0.80;;;;;;;12.27;78.82;98856.63;1723094;83;21094;-70
2021/09/20 09:53:48;;;;;;;2.10;0.88;;;;;;;12.26;78.98;98855.81;1723278;83;21510;-71
2021/09/20 09:56:25;;;;;;;2.33;1.10;;;;;;;12.35;78.65;98865.48;1723168;83;21050;-71
2021/09/20 09:58:58;;;;;;;1.50;0.70;;;;;;;12.37;78.96;98862.69;1723452;83;21090;-71
2021/09/20 10:01:38;;;;;;;1.45;0.72;;;;;;;12.46;78.90;98866.89;1723529;83;21608;-70
2021/09/20 10:04:15;;;;;;;2.45;1.10;;;;;;;12.57;78.70;98862.83;1716158;83;21675;-70
2021/09/20 10:06:46;;;;;;;;;;;;;;;12.57;78.19;98868.30;1712810;84;21118;-70
2021/09/20 10:09:22;;;;;;;1.67;0.85;;;;;;;12.54;78.28;98868.88;1710370;84;20121;-71
2021/09/20 10:11:50;;;;;;;;;;;;;;;12.54;77.92;98870.83;1712760;84;21091;-70
2021/09/20 10:14:16;;;;;;;2.60;0.90;;;;;;;12.46;77.08;98875.08;1710486;84;20327;-70
2021/09/20 10:16:43;;;;;;;1.42;0.72;;;;;;;12.24;77.20;98879.87;1710079;84;21066;-70
2021/09/20 10:19:11;;;;;;;2.75;1.27;;;;;;;12.20;77.28;98880.23;1709936;84;21031;-70
2021/09/20 10:21:37;;;;;;;2.87;1.27;;;;;;;12.20;77.25;98884.32;1710186;84;21090;-70
2021/09/20 10:24:05;;;;;;;2.40;1.27;;;;;;;12.19;77.37;98885.97;1709881;84;21091;-71
2021/09/20 10:26:32;;;;;;;1.30;0.70;;;;;;;12.15;77.85;98892.59;1709829;84;21075;-71
2021/09/20 10:29:02;;;;;;;1.60;0.90;;;;;;;12.20;77.91;98893.05;1709782;84;21043;-70
2021/09/20 10:31:29;;;;;;;1.50;0.53;;;;;;;12.20;77.20;98897.96;1709838;84;21119;-69
2021/09/20 10:34:24;;;;;;;0.98;0.40;;;;;;;12.09;77.17;98897.90;1710137;84;21659;-70
2021/09/20 10:37:09;;;;;;;1.40;0.55;;;;;;;12.06;76.69;98897.14;1709684;83;21043;-71
2021/09/20 10:39:52;;;;;;;0.90;0.50;;;;;;;12.07;76.73;98898.77;1692351;84;21106;-70
2021/09/20 10:42:50;;;;;;;0.88;0.47;;;;;;;12.12;76.84;98897.30;1701966;84;21628;-70
2021/09/20 10:45:49;;;;;;;1.75;0.55;;;;;;;12.18;77.01;98895.30;1709591;83;21099;-71
2021/09/20 10:48:23;;;;;;;1.00;0.50;;;;;;;12.38;77.18;98896.25;1709967;83;21137;-71
2021/09/20 10:51:05;;;;;;;0.93;0.62;;;;;;;12.60;76.61;98900.99;1710034;84;21586;-69
2021/09/20 10:53:34;;;;;;;1.80;0.70;;;;;;;12.76;75.94;98906.37;1708656;84;21673;-70
2021/09/20 10:56:08;;;;;;;2.17;0.95;;;;;;;12.84;75.75;98898.83;1709960;84;21086;-71
2021/09/20 10:58:57;;;;;;;1.25;0.75;;;;;;;12.93;75.33;98903.84;1709798;84;21737;-70
2021/09/20 11:01:26;;;;;;;1.27;0.68;;;;;;;13.05;74.27;98902.72;1710033;84;21047;-71
2021/09/20 11:04:00;;;;;;;1.90;0.80;;;;;;;13.03;73.65;98907.70;1709825;83;21051;-70
2021/09/20 11:06:32;;;;;;;1.40;0.50;;;;;;;13.10;73.92;98912.22;1709928;84;21015;-70
2021/09/20 11:09:08;;;;;;;1.98;0.62;;;;;;;13.28;73.38;98894.04;1709929;84;21051;-71
2021/09/20 11:11:42;;;;;;;2.80;0.47;;;;;;;13.34;72.80;98903.17;1709924;84;21632;-71
2021/09/20 11:14:19;;;;;;;0.90;0.50;;;;;;;13.34;72.85;98906.46;1709835;84;21008;-72
2021/09/20 11:16:58;;;;;;;2.25;0.30;;;;;;;13.43;72.68;98908.13;1709881;84;21079;-71
2021/09/20 11:19:33;;;;;;;0.60;0.40;;;;;;;13.48;71.76;98903.11;1709856;84;21054;-70
2021/09/20 11:22:13;;;;;;;1.22;0.35;;;;;;;13.45;72.17;98905.10;1709996;84;21119;-69
2021/09/20 11:24:47;;;;;;;0.70;0.40;;;;;;;13.38;71.46;98901.44;1709754;84;21027;-70
2021/09/20 11:27:36;;;;;;;3.00;0.88;;;;;;;13.33;71.27;98909.75;1709952;84;21578;-70
2021/09/20 11:30:22;;;;;;;2.87;1.12;;;;;;;13.24;71.54;98918.45;1709983;84;21514;-71
2021/09/20 11:32:55;;;;;;;4.47;2.20;;;;;;;13.13;72.12;98917.61;1709990;84;20999;-71
2021/09/20 11:35:23;;;;;;;7.67;5.35;;;;;;;13.23;72.74;98914.64;1709765;84;21095;-70
2021/09/20 11:37:50;;;;;;;3.55;1.82;;;;;;;13.42;72.74;98913.38;1710024;84;21613;-70
2021/09/20 11:40:19;;;;;;;5.80;2.20;;;;;;;13.50;71.94;98914.53;1709634;84;21547;-70
2021/09/20 11:42:51;;;;;;;6.78;3.40;;;;;;;13.45;72.14;98910.02;1709654;84;21547;-70
2021/09/20 11:45:27;;;;;;;4.15;2.00;;;;;;;13.40;71.94;98922.42;1709521;84;21538;-70
2021/09/20 11:48:03;;;;;;;4.67;1.75;;;;;;;13.37;72.12;98927.15;1710245;84;21455;-69
2021/09/20 11:50:42;;;;;;;2.98;1.55;;;;;;;13.35;72.01;98926.67;1710046;84;21067;-69
2021/09/20 11:53:17;;;;;;;4.47;1.12;;;;;;;13.20;71.33;98931.11;1710226;84;21031;-69